Time,TemperatureF,DewpointF,PressureIn,WindDirection,WindDirectionDegrees,WindSpeedMPH,WindSpeedGustMPH,Humidity,HourlyPrecipIn,Conditions,Clouds,dailyrainin,SoftwareType,DateUTC
2013-04-22 00:09:00,44.1,39.0,30.20,ENE,58,0.0,-999.0,81,-99.99,,,0.00,weatherlink.com 1.10,2013-04-22 07:09:00,
2013-04-22 00:24:00,43.5,38.0,30.21,ENE,58,0.0,-999.0,80,-99.99,,,0.00,weatherlink.com 1.10,2013-04-22 07:24:00,
2013-04-22 00:39:00,43.1,38.0,30.22,ENE,58,0.0,-999.0,81,-99.99,,,0.00,weatherlink.com 1.10,2013-04-22 07:39:00,
2013-04-22 00:54:00,42.4,37.0,30.23,ENE,58,0.0,-999.0,82,-99.99,,,0.00,weatherlink.com 1.10,2013-04-22 07:54:00,
2013-04-22 01:09:00,41.5,36.0,30.24,ENE,58,0.0,-999.0,82,-99.99,,,0.00,weatherlink.com 1.10,2013-04-22 08:09:00,
2013-04-22 01:24:00,40.6,36.0,30.24,ENE,58,0.0,-999.0,83,-99.99,,,0.00,weatherlink.com 1.10,2013-04-22 08:24:00,
2013-04-22 01:39:00,40.1,36.0,30.25,ENE,58,0.0,-999.0,84,-99.99,,,0.00,weatherlink.com 1.10,2013-04-22 08:39:00,
2013-04-22 01:54:00,39.4,35.0,30.25,ENE,58,0.0,-999.0,84,-99.99,,,0.00,weatherlink.com 1.10,2013-04-22 08:54:00,
2013-04-22 02:09:00,38.8,35.0,30.26,ENE,58,0.0,-999.0,85,-99.99,,,0.00,weatherlink.com 1.10,2013-04-22 09:09:00,
2013-04-22 02:24:00,38.4,34.0,30.27,ENE,58,0.0,-999.0,85,-99.99,,,0.00,weatherlink.com 1.10,2013-04-22 09:24:00,
2013-04-22 02:40:00,37.9,34.0,30.27,ENE,58,0.0,-999.0,85,-99.99,,,0.00,weatherlink.com 1.10,2013-04-22 09:40:00,
2013-04-22 02:55:00,37.4,33.0,30.27,ENE,58,0.0,-999.0,85,-99.99,,,0.00,weatherlink.com 1.10,2013-04-22 09:55:00,
2013-04-22 03:10:00,37.1,33.0,30.28,ENE,58,0.0,-999.0,85,-99.99,,,0.00,weatherlink.com 1.10,2013-04-22 10:10:00,
2013-04-22 03:25:00,36.9,33.0,30.29,ENE,58,2.0,-999.0,86,-99.99,,,0.00,weatherlink.com 1.10,2013-04-22 10:25:00,
2013-04-22 03:40:00,36.7,33.0,30.29,ENE,58,0.0,-999.0,85,-99.99,,,0.00,weatherlink.com 1.10,2013-04-22 10:40:00,
2013-04-22 03:55:00,36.2,32.0,30.30,ENE,58,0.0,-999.0,85,-99.99,,,0.00,weatherlink.com 1.10,2013-04-22 10:55:00,
2013-04-22 04:10:00,35.7,32.0,30.31,ENE,58,0.0,-999.0,85,-99.99,,,0.00,weatherlink.com 1.10,2013-04-22 11:10:00,
2013-04-22 04:25:00,35.2,31.0,30.32,ENE,58,0.0,-999.0,85,-99.99,,,0.00,weatherlink.com 1.10,2013-04-22 11:25:00,
2013-04-22 04:40:00,34.9,31.0,30.33,ENE,58,0.0,-999.0,86,-99.99,,,0.00,weatherlink.com 1.10,2013-04-22 11:40:00,
2013-04-22 04:55:00,35.0,32.0,30.34,ENE,58,0.0,-999.0,87,-99.99,,,0.00,weatherlink.com 1.10,2013-04-22 11:55:00,
2013-04-22 05:10:00,34.4,31.0,30.34,ENE,58,0.0,-999.0,86,-99.99,,,0.00,weatherlink.com 1.10,2013-04-22 12:10:00,
2013-04-22 05:25:00,34.0,31.0,30.35,ENE,58,0.0,-999.0,87,-99.99,,,0.00,weatherlink.com 1.10,2013-04-22 12:25:00,
2013-04-22 05:40:00,33.6,30.0,30.36,ENE,58,0.0,-999.0,88,-99.99,,,0.00,weatherlink.com 1.10,2013-04-22 12:40:00,
2013-04-22 05:55:00,33.7,31.0,30.37,ENE,58,0.0,-999.0,89,-99.99,,,0.00,weatherlink.com 1.10,2013-04-22 12:55:00,
2013-04-22 06:10:00,33.6,30.0,30.38,ENE,58,0.0,-999.0,88,-99.99,,,0.00,weatherlink.com 1.10,2013-04-22 13:10:00,
2013-04-22 06:25:00,33.7,31.0,30.39,ENE,58,0.0,-999.0,89,-99.99,,,0.00,weatherlink.com 1.10,2013-04-22 13:25:00,
2013-04-22 06:40:00,34.1,31.0,30.39,ENE,58,0.0,-999.0,89,-99.99,,,0.00,weatherlink.com 1.10,2013-04-22 13:40:00,
2013-04-22 06:55:00,34.6,31.0,30.41,ENE,58,0.0,-999.0,88,-99.99,,,0.00,weatherlink.com 1.10,2013-04-22 13:55:00,
2013-04-22 07:10:00,35.1,32.0,30.41,ENE,58,0.0,-999.0,88,-99.99,,,0.00,weatherlink.com 1.10,2013-04-22 14:10:00,
2013-04-22 07:25:00,37.4,33.0,30.42,ENE,58,0.0,-999.0,84,-99.99,,,0.00,weatherlink.com 1.10,2013-04-22 14:25:00,
2013-04-22 07:40:00,38.3,33.0,30.42,ENE,60,0.0,-999.0,82,-99.99,,,0.00,weatherlink.com 1.10,2013-04-22 14:40:00,
2013-04-22 07:55:00,38.6,34.0,30.43,North,9,0.0,-999.0,82,-99.99,,,0.00,weatherlink.com 1.10,2013-04-22 14:55:00,
2013-04-22 08:10:00,39.5,34.0,30.43,NNW,346,0.0,-999.0,80,-99.99,,,0.00,weatherlink.com 1.10,2013-04-22 15:10:00,
2013-04-22 08:25:00,41.5,35.0,30.43,NW,311,3.0,-999.0,79,-99.99,,,0.00,weatherlink.com 1.10,2013-04-22 15:25:00,
2013-04-22 08:40:00,43.4,32.0,30.43,WNW,298,1.0,-999.0,64,-99.99,,,0.00,weatherlink.com 1.10,2013-04-22 15:40:00,
2013-04-22 08:55:00,44.6,31.0,30.43,WSW,252,3.0,-999.0,59,-99.99,,,0.00,weatherlink.com 1.10,2013-04-22 15:55:00,
2013-04-22 09:10:00,45.9,28.0,30.43,SSW,209,1.0,-999.0,49,-99.99,,,0.00,weatherlink.com 1.10,2013-04-22 16:10:00,
2013-04-22 09:26:00,47.1,27.0,30.43,SSW,211,4.0,-999.0,45,-99.99,,,0.00,weatherlink.com 1.10,2013-04-22 16:26:00,
2013-04-22 09:41:00,48.4,24.0,30.44,ESE,115,0.0,-999.0,39,-99.99,,,0.00,weatherlink.com 1.10,2013-04-22 16:41:00,
2013-04-22 09:56:00,47.7,24.0,30.44,SE,132,0.0,-999.0,40,-99.99,,,0.00,weatherlink.com 1.10,2013-04-22 16:56:00,
2013-04-22 10:11:00,49.2,26.0,30.44,ENE,66,1.0,-999.0,40,-99.99,,,0.00,weatherlink.com 1.10,2013-04-22 17:11:00,
2013-04-22 10:26:00,48.8,25.0,30.44,South,188,2.0,-999.0,40,-99.99,,,0.00,weatherlink.com 1.10,2013-04-22 17:26:00,
2013-04-22 10:41:00,49.6,25.0,30.43,SW,217,3.0,-999.0,39,-99.99,,,0.00,weatherlink.com 1.10,2013-04-22 17:41:00,
2013-04-22 10:56:00,49.0,24.0,30.43,SW,219,0.0,-999.0,38,-99.99,,,0.00,weatherlink.com 1.10,2013-04-22 17:56:00,
2013-04-22 11:11:00,50.8,27.0,30.43,SSW,192,4.0,-999.0,40,-99.99,,,0.00,weatherlink.com 1.10,2013-04-22 18:11:00,
2013-04-22 11:26:00,51.0,27.0,30.43,WNW,295,2.0,-999.0,40,-99.99,,,0.00,weatherlink.com 1.10,2013-04-22 18:26:00,
2013-04-22 11:41:00,51.7,27.0,30.43,SSW,209,3.0,-999.0,39,-99.99,,,0.00,weatherlink.com 1.10,2013-04-22 18:41:00,
2013-04-22 11:56:00,52.2,26.0,30.42,SW,235,4.0,-999.0,36,-99.99,,,0.00,weatherlink.com 1.10,2013-04-22 18:56:00,
2013-04-22 12:11:00,52.4,26.0,30.42,SSW,210,7.0,-999.0,36,-99.99,,,0.00,weatherlink.com 1.10,2013-04-22 19:11:00,
2013-04-22 12:26:00,52.3,27.0,30.41,West,268,4.0,-999.0,37,-99.99,,,0.00,weatherlink.com 1.10,2013-04-22 19:26:00,
2013-04-22 12:41:00,53.4,25.0,30.41,ESE,121,4.0,-999.0,33,-99.99,,,0.00,weatherlink.com 1.10,2013-04-22 19:41:00,
2013-04-22 12:56:00,54.0,24.0,30.41,West,262,2.0,-999.0,31,-99.99,,,0.00,weatherlink.com 1.10,2013-04-22 19:56:00,
2013-04-22 13:11:00,54.7,23.0,30.40,West,274,0.0,-999.0,29,-99.99,,,0.00,weatherlink.com 1.10,2013-04-22 20:11:00,
2013-04-22 13:26:00,55.4,25.0,30.39,SSW,197,7.0,-999.0,31,-99.99,,,0.00,weatherlink.com 1.10,2013-04-22 20:26:00,
2013-04-22 13:41:00,56.5,24.0,30.39,SW,221,5.0,-999.0,28,-99.99,,,0.00,weatherlink.com 1.10,2013-04-22 20:41:00,
2013-04-22 13:56:00,56.1,24.0,30.39,SSW,209,3.0,-999.0,29,-99.99,,,0.00,weatherlink.com 1.10,2013-04-22 20:56:00,
2013-04-22 14:11:00,57.2,23.0,30.39,West,271,4.0,-999.0,27,-99.99,,,0.00,weatherlink.com 1.10,2013-04-22 21:11:00,
2013-04-22 14:26:00,56.9,22.0,30.39,South,188,1.0,-999.0,26,-99.99,,,0.00,weatherlink.com 1.10,2013-04-22 21:26:00,
2013-04-22 14:41:00,57.3,21.0,30.38,SSW,193,5.0,-999.0,24,-99.99,,,0.00,weatherlink.com 1.10,2013-04-22 21:41:00,
2013-04-22 14:56:00,57.3,23.0,30.38,ESE,120,1.0,-999.0,27,-99.99,,,0.00,weatherlink.com 1.10,2013-04-22 21:56:00,
2013-04-22 15:11:00,58.0,21.0,30.37,ESE,112,0.0,-999.0,24,-99.99,,,0.00,weatherlink.com 1.10,2013-04-22 22:11:00,
2013-04-22 15:26:00,58.1,24.0,30.37,West,264,3.0,-999.0,27,-99.99,,,0.00,weatherlink.com 1.10,2013-04-22 22:26:00,
2013-04-22 15:41:00,57.6,23.0,30.36,WNW,290,1.0,-999.0,26,-99.99,,,0.00,weatherlink.com 1.10,2013-04-22 22:41:00,
2013-04-22 15:56:00,57.4,23.0,30.36,SSW,208,3.0,-999.0,27,-99.99,,,0.00,weatherlink.com 1.10,2013-04-22 22:56:00,
2013-04-22 16:11:00,58.2,25.0,30.36,SSW,211,3.0,-999.0,28,-99.99,,,0.00,weatherlink.com 1.10,2013-04-22 23:11:00,
2013-04-22 16:26:00,57.7,25.0,30.35,SSW,203,4.0,-999.0,28,-99.99,,,0.00,weatherlink.com 1.10,2013-04-22 23:26:00,
2013-04-22 16:41:00,58.3,27.0,30.35,SSE,165,2.0,-999.0,30,-99.99,,,0.00,weatherlink.com 1.10,2013-04-22 23:41:00,
2013-04-22 16:56:00,58.2,27.0,30.35,SSW,196,3.0,-999.0,30,-99.99,,,0.00,weatherlink.com 1.10,2013-04-22 23:56:00,
2013-04-22 17:11:00,57.8,26.0,30.35,SW,215,3.0,-999.0,30,-99.99,,,0.00,weatherlink.com 1.10,2013-04-23 00:11:00,
2013-04-22 17:26:00,57.6,27.0,30.34,SSW,209,3.0,-999.0,31,-99.99,,,0.00,weatherlink.com 1.10,2013-04-23 00:26:00,
2013-04-22 17:41:00,57.3,27.0,30.34,SSW,196,1.0,-999.0,31,-99.99,,,0.00,weatherlink.com 1.10,2013-04-23 00:41:00,
2013-04-22 17:56:00,57.3,27.0,30.35,WSW,255,0.0,-999.0,31,-99.99,,,0.00,weatherlink.com 1.10,2013-04-23 00:56:00,
2013-04-22 18:11:00,56.1,29.0,30.35,SW,218,3.0,-999.0,35,-99.99,,,0.00,weatherlink.com 1.10,2013-04-23 01:11:00,
2013-04-22 18:26:00,54.4,30.0,30.35,SSW,200,0.0,-999.0,40,-99.99,,,0.00,weatherlink.com 1.10,2013-04-23 01:26:00,
2013-04-22 18:41:00,53.2,30.0,30.35,SSW,200,0.0,-999.0,42,-99.99,,,0.00,weatherlink.com 1.10,2013-04-23 01:41:00,
2013-04-22 18:56:00,52.2,31.0,30.35,SSW,200,0.0,-999.0,44,-99.99,,,0.00,weatherlink.com 1.10,2013-04-23 01:56:00,
2013-04-22 19:11:00,52.1,31.0,30.35,SSW,200,0.0,-999.0,45,-99.99,,,0.00,weatherlink.com 1.10,2013-04-23 02:11:00,
2013-04-22 19:26:00,51.4,32.0,30.35,SSW,200,0.0,-999.0,48,-99.99,,,0.00,weatherlink.com 1.10,2013-04-23 02:26:00,
2013-04-22 19:41:00,50.4,32.0,30.36,SSW,200,0.0,-999.0,49,-99.99,,,0.00,weatherlink.com 1.10,2013-04-23 02:41:00,
2013-04-22 19:56:00,49.7,29.0,30.36,SSW,200,0.0,-999.0,46,-99.99,,,0.00,weatherlink.com 1.10,2013-04-23 02:56:00,
2013-04-22 20:11:00,49.0,31.0,30.37,SSW,200,0.0,-999.0,50,-99.99,,,0.00,weatherlink.com 1.10,2013-04-23 03:11:00,
2013-04-22 20:26:00,47.9,32.0,30.38,SSW,200,0.0,-999.0,55,-99.99,,,0.00,weatherlink.com 1.10,2013-04-23 03:26:00,
2013-04-22 20:41:00,46.9,33.0,30.38,SSW,200,0.0,-999.0,58,-99.99,,,0.00,weatherlink.com 1.10,2013-04-23 03:41:00,
2013-04-22 20:57:00,46.1,33.0,30.39,SSW,200,0.0,-999.0,61,-99.99,,,0.00,weatherlink.com 1.10,2013-04-23 03:57:00,
2013-04-22 21:12:00,45.0,33.0,30.39,SSW,200,0.0,-999.0,63,-99.99,,,0.00,weatherlink.com 1.10,2013-04-23 04:12:00,
2013-04-22 21:27:00,44.4,33.0,30.40,SSW,200,0.0,-999.0,65,-99.99,,,0.00,weatherlink.com 1.10,2013-04-23 04:27:00,
2013-04-22 21:42:00,43.7,33.0,30.40,SSW,200,0.0,-999.0,66,-99.99,,,0.00,weatherlink.com 1.10,2013-04-23 04:42:00,
2013-04-22 21:57:00,43.0,33.0,30.40,SSW,200,0.0,-999.0,68,-99.99,,,0.00,weatherlink.com 1.10,2013-04-23 04:57:00,
2013-04-22 22:12:00,42.0,33.0,30.41,SSW,200,0.0,-999.0,70,-99.99,,,0.00,weatherlink.com 1.10,2013-04-23 05:12:00,
2013-04-22 22:27:00,41.5,33.0,30.42,SSW,200,0.0,-999.0,71,-99.99,,,0.00,weatherlink.com 1.10,2013-04-23 05:27:00,
2013-04-22 22:42:00,41.0,33.0,30.41,SSW,200,0.0,-999.0,72,-99.99,,,0.00,weatherlink.com 1.10,2013-04-23 05:42:00,
2013-04-22 22:57:00,40.2,32.0,30.41,SSW,200,0.0,-999.0,73,-99.99,,,0.00,weatherlink.com 1.10,2013-04-23 05:57:00,
2013-04-22 23:12:00,39.8,32.0,30.41,SSW,200,0.0,-999.0,73,-99.99,,,0.00,weatherlink.com 1.10,2013-04-23 06:12:00,
2013-04-22 23:27:00,39.2,32.0,30.42,SSW,200,0.0,-999.0,75,-99.99,,,0.00,weatherlink.com 1.10,2013-04-23 06:27:00,
2013-04-22 23:42:00,38.5,31.0,30.42,SSW,200,0.0,-999.0,75,-99.99,,,0.00,weatherlink.com 1.10,2013-04-23 06:42:00,
2013-04-22 23:57:00,37.9,31.0,30.41,SSW,200,0.0,-999.0,75,-99.99,,,0.00,weatherlink.com 1.10,2013-04-23 06:57:00,